Time;durP1;ratioP1;P1;durP2;ratioP2;P2;SDS_P1;SDS_P2;PMS_P1;PMS_P2;Temp;Humidity;BMP_temperature;BMP_pressure;BME280_temperature;BME280_humidity;BME280_pressure;Samples;Min_cycle;Max_cycle;Signal;HPM_P1;HPM_P2
2021/05/13 00:00:10;;;;;;;1999.90;999.90;;;;;;;12.56;100.00;-18243.00;5117962;28;20217;-33
2021/05/13 00:02:56;;;;;;;1999.90;999.90;;;;;;;12.31;100.00;-18236.47;5118758;28;20260;-35
2021/05/13 00:05:43;;;;;;;1999.90;999.90;;;;;;;12.47;100.00;-18240.75;5118573;28;20296;-37
2021/05/13 00:08:31;;;;;;;1999.90;999.90;;;;;;;12.50;100.00;-18241.53;5118630;28;20280;-35
2021/05/13 00:11:20;;;;;;;1999.90;999.90;;;;;;;12.42;100.00;-18239.41;5118724;28;20256;-35
2021/05/13 00:14:08;;;;;;;1999.90;999.90;;;;;;;12.33;100.00;-18237.16;5118498;28;20594;-35
2021/05/13 00:16:54;;;;;;;1999.90;999.90;;;;;;;12.11;100.00;-18231.13;5118839;28;20202;-34
2021/05/13 00:19:42;;;;;;;1999.90;999.90;;;;;;;12.15;100.00;-18232.19;5118690;28;20292;-34
2021/05/13 00:22:28;;;;;;;1999.90;999.90;;;;;;;12.22;100.00;-18234.06;5118428;28;20258;-35
2021/05/13 00:25:18;;;;;;;1999.90;999.90;;;;;;;12.20;100.00;-18233.66;5118526;28;20197;-35
2021/05/13 00:28:05;;;;;;;1999.90;999.90;;;;;;;12.21;100.00;-18233.81;5118542;28;20195;-35
2021/05/13 00:30:52;;;;;;;1999.90;999.90;;;;;;;12.21;100.00;-18233.94;5118169;28;20585;-36
2021/05/13 00:33:39;;;;;;;1999.90;999.90;;;;;;;12.28;100.00;-18235.81;5118409;28;20195;-35
2021/05/13 00:36:26;;;;;;;1999.90;999.90;;;;;;;12.34;100.00;-18237.41;5117804;28;20304;-37
2021/05/13 00:39:15;;;;;;;1999.90;999.90;;;;;;;13.08;100.00;-18256.75;5117141;28;20617;-34
2021/05/13 00:42:04;;;;;;;1999.90;999.90;;;;;;;12.62;100.00;-18244.75;5117889;28;20199;-42
2021/05/13 00:44:54;;;;;;;1999.90;999.90;;;;;;;12.68;100.00;-18246.34;5118097;28;20210;-36
2021/05/13 00:47:47;;;;;;;1999.90;999.90;;;;;;;12.52;100.00;-18242.09;5118272;28;20198;-36
2021/05/13 00:50:34;;;;;;;1999.90;999.90;;;;;;;12.77;100.00;-18248.75;5118152;28;20191;-35
2021/05/13 00:53:20;;;;;;;1999.90;999.90;;;;;;;12.62;100.00;-18244.75;5117845;28;20203;-34
2021/05/13 00:56:07;;;;;;;1999.90;999.90;;;;;;;12.46;100.00;-18240.47;5117755;28;20205;-34
2021/05/13 00:58:56;;;;;;;1999.90;999.90;;;;;;;12.48;100.00;-18241.00;5118014;28;20206;-35
2021/05/13 01:01:50;;;;;;;1999.90;999.90;;;;;;;12.53;100.00;-18242.22;5117252;28;20217;-38
2021/05/13 01:04:37;;;;;;;1999.90;999.90;;;;;;;12.67;100.00;-18246.09;5117314;28;20298;-34
2021/05/13 01:07:23;;;;;;;1999.90;999.90;;;;;;;12.49;100.00;-18241.28;5117816;28;20222;-34
2021/05/13 01:10:11;;;;;;;1999.90;999.90;;;;;;;12.33;100.00;-18237.00;5117518;28;20669;-36
2021/05/13 01:13:01;;;;;;;1999.90;999.90;;;;;;;12.26;100.00;-18235.28;5117648;28;20505;-34
2021/05/13 01:15:51;;;;;;;1999.90;999.90;;;;;;;12.15;100.00;-18232.19;5117896;28;20478;-37
2021/05/13 01:18:46;;;;;;;1999.90;999.90;;;;;;;12.16;100.00;-18232.59;5117291;28;20341;-34
2021/05/13 01:21:38;;;;;;;1999.90;999.90;;;;;;;12.13;100.00;-18231.66;5117367;28;20630;-38
2021/05/13 01:24:24;;;;;;;1999.90;999.90;;;;;;;11.98;100.00;-18227.94;5117788;28;20191;-36
2021/05/13 01:27:11;;;;;;;1999.90;999.90;;;;;;;12.02;100.00;-18228.88;5117766;28;20732;-36
2021/05/13 01:29:59;;;;;;;1999.90;999.90;;;;;;;11.98;100.00;-18227.78;5117612;28;20472;-37
2021/05/13 01:32:46;;;;;;;1999.90;999.90;;;;;;;11.96;100.00;-18227.25;5117561;28;20323;-34
2021/05/13 01:35:33;;;;;;;1999.90;999.90;;;;;;;11.88;100.00;-18225.13;5117811;28;20198;-37
2021/05/13 01:38:23;;;;;;;1999.90;999.90;;;;;;;12.00;100.00;-18228.47;5117330;28;20484;-35
2021/05/13 01:41:10;;;;;;;1999.90;999.90;;;;;;;12.20;100.00;-18233.53;5117574;28;20218;-37
2021/05/13 01:43:57;;;;;;;1999.90;999.90;;;;;;;11.96;100.00;-18227.41;5117717;28;20194;-32
2021/05/13 01:46:43;;;;;;;1999.90;999.90;;;;;;;12.14;100.00;-18232.06;5117293;28;20291;-33
2021/05/13 01:49:33;;;;;;;1999.90;999.90;;;;;;;12.26;100.00;-18235.13;5117270;28;20199;-35
2021/05/13 01:52:19;;;;;;;1999.90;999.90;;;;;;;12.01;100.00;-18228.72;5121423;28;20602;-36
2021/05/13 01:55:10;;;;;;;1999.90;999.90;;;;;;;11.93;100.00;-18226.47;5121375;28;20200;-34
2021/05/13 01:57:57;;;;;;;1999.90;999.90;;;;;;;11.93;100.00;-18226.59;5121176;28;20596;-34
2021/05/13 02:00:45;;;;;;;1999.90;999.90;;;;;;;11.75;100.00;-18221.78;5121513;28;20230;-37
2021/05/13 02:03:32;;;;;;;1999.90;999.90;;;;;;;11.94;100.00;-18226.72;5121284;28;20197;-35
2021/05/13 02:06:19;;;;;;;1999.90;999.90;;;;;;;11.96;100.00;-18227.41;5121311;28;20241;-35
2021/05/13 02:09:06;;;;;;;1999.90;999.90;;;;;;;11.79;100.00;-18222.84;5121487;28;20646;-32
2021/05/13 02:11:53;;;;;;;1999.90;999.90;;;;;;;11.78;100.00;-18222.47;5121231;28;20214;-33
2021/05/13 02:14:39;;;;;;;1999.90;999.90;;;;;;;11.98;100.00;-18227.94;5120953;28;20202;-34
2021/05/13 02:17:27;;;;;;;1999.90;999.90;;;;;;;12.08;100.00;-18230.47;5121114;28;20199;-34
2021/05/13 02:20:16;;;;;;;1999.90;999.90;;;;;;;12.15;100.00;-18232.19;5120931;28;20325;-34
2021/05/13 02:23:03;;;;;;;1999.90;999.90;;;;;;;11.97;100.00;-18227.53;5120430;28;20619;-35
2021/05/13 02:25:51;;;;;;;1999.90;999.90;;;;;;;11.96;100.00;-18227.41;5121010;28;20205;-36
2021/05/13 02:28:38;;;;;;;1999.90;999.90;;;;;;;11.66;100.00;-18219.38;5120839;28;20591;-34
2021/05/13 02:31:24;;;;;;;1999.90;999.90;;;;;;;11.70;100.00;-18220.44;5120713;28;20198;-36
2021/05/13 02:34:10;;;;;;;1999.90;999.90;;;;;;;11.67;100.00;-18219.63;5120170;28;20221;-33
2021/05/13 02:36:57;;;;;;;1999.90;999.90;;;;;;;11.47;100.00;-18214.44;5121071;28;20212;-39
2021/05/13 02:39:43;;;;;;;1999.90;999.90;;;;;;;11.52;100.00;-18215.63;5120719;28;20205;-37
2021/05/13 02:42:29;;;;;;;1999.90;999.90;;;;;;;11.34;100.00;-18211.09;5120636;28;20204;-32
2021/05/13 02:45:17;;;;;;;1999.90;999.90;;;;;;;11.36;100.00;-18211.63;5120037;28;20254;-34
2021/05/13 02:48:03;;;;;;;1999.90;999.90;;;;;;;11.25;100.00;-18208.56;5119979;28;20193;-34
2021/05/13 02:50:50;;;;;;;1999.90;999.90;;;;;;;11.32;100.00;-18210.44;5120587;28;20297;-33
2021/05/13 02:53:36;;;;;;;1999.90;999.90;;;;;;;11.30;100.00;-18209.88;5120259;28;20595;-35
2021/05/13 02:56:23;;;;;;;1999.90;999.90;;;;;;;11.44;100.00;-18213.50;5120572;28;20301;-32
2021/05/13 02:59:09;;;;;;;1999.90;999.90;;;;;;;11.34;100.00;-18211.09;5121046;28;20249;-35
2021/05/13 03:01:56;;;;;;;1999.90;999.90;;;;;;;11.39;100.00;-18212.28;5119463;28;20240;-32
2021/05/13 03:04:44;;;;;;;1999.90;999.90;;;;;;;11.45;100.00;-18213.75;5120037;28;20287;-33
2021/05/13 03:07:30;;;;;;;1999.90;999.90;;;;;;;11.50;100.00;-18215.09;5119958;28;20711;-35
2021/05/13 03:10:21;;;;;;;1999.90;999.90;;;;;;;11.49;100.00;-18214.84;5119782;28;20259;-37
2021/05/13 03:13:09;;;;;;;1999.90;999.90;;;;;;;11.47;100.00;-18214.44;5119666;28;20248;-36
2021/05/13 03:15:55;;;;;;;1999.90;999.90;;;;;;;11.56;100.00;-18216.84;5119290;28;20197;-34
2021/05/13 03:18:45;;;;;;;1999.90;999.90;;;;;;;12.03;100.00;-18229.13;5119590;28;20610;-35
2021/05/13 03:21:37;;;;;;;1999.90;999.90;;;;;;;12.07;100.00;-18230.34;5119332;28;20228;-35
2021/05/13 03:24:31;;;;;;;1999.90;999.90;;;;;;;11.86;100.00;-18224.72;5118963;28;20287;-33
2021/05/13 03:27:28;;;;;;;1999.90;999.90;;;;;;;11.78;100.00;-18222.59;5119511;28;20246;-37
2021/05/13 03:30:17;;;;;;;1999.90;999.90;;;;;;;11.82;100.00;-18223.53;5119143;28;20355;-32
2021/05/13 03:33:03;;;;;;;1999.90;999.90;;;;;;;11.88;100.00;-18225.25;5119370;28;20557;-34
2021/05/13 03:35:51;;;;;;;1999.90;999.90;;;;;;;11.97;100.00;-18227.66;5119505;28;20630;-36
2021/05/13 03:38:37;;;;;;;1999.90;999.90;;;;;;;11.87;100.00;-18225.00;5119432;28;20284;-34
2021/05/13 03:41:24;;;;;;;1999.90;999.90;;;;;;;11.77;100.00;-18222.31;5119196;28;20249;-32
2021/05/13 03:44:10;;;;;;;1999.90;999.90;;;;;;;11.83;100.00;-18223.91;5119109;28;20197;-35
2021/05/13 03:46:56;;;;;;;1999.90;999.90;;;;;;;11.62;100.00;-18218.31;5119122;28;20197;-36
2021/05/13 03:49:45;;;;;;;1999.90;999.90;;;;;;;11.55;100.00;-18216.56;5118877;28;20204;-33
2021/05/13 03:52:32;;;;;;;1999.90;999.90;;;;;;;11.61;100.00;-18218.16;5118973;28;20346;-36
2021/05/13 03:55:18;;;;;;;1999.90;999.90;;;;;;;11.80;100.00;-18222.97;5118863;28;20204;-34
2021/05/13 03:58:07;;;;;;;1999.90;999.90;;;;;;;11.58;100.00;-18217.25;5119173;28;20204;-33
2021/05/13 04:01:07;;;;;;;1999.90;999.90;;;;;;;11.63;100.00;-18218.72;5118930;28;20691;-33
2021/05/13 04:03:54;;;;;;;1999.90;999.90;;;;;;;12.04;100.00;-18229.41;5118754;28;20485;-34
2021/05/13 04:06:41;;;;;;;1999.90;999.90;;;;;;;11.81;100.00;-18223.25;5118954;28;20338;-36
2021/05/13 04:09:29;;;;;;;1999.90;999.90;;;;;;;11.88;100.00;-18225.13;5118266;28;20199;-33
2021/05/13 04:12:15;;;;;;;1999.90;999.90;;;;;;;12.02;100.00;-18229.00;5118277;28;20236;-34
2021/05/13 04:15:01;;;;;;;1999.90;999.90;;;;;;;12.08;100.00;-18230.47;5117613;28;20361;-32
2021/05/13 04:17:47;;;;;;;1999.90;999.90;;;;;;;12.01;100.00;-18228.72;5118454;28;20198;-35
2021/05/13 04:20:36;;;;;;;1999.90;999.90;;;;;;;11.99;100.00;-18228.19;5118546;28;20207;-34
2021/05/13 04:23:23;;;;;;;1999.90;999.90;;;;;;;11.42;100.00;-18212.97;5118066;28;20200;-32
2021/05/13 04:26:11;;;;;;;1999.90;999.90;;;;;;;11.26;100.00;-18208.94;5118188;28;20201;-33
2021/05/13 04:28:57;;;;;;;1999.90;999.90;;;;;;;11.18;100.00;-18206.81;5118423;28;20543;-34
2021/05/13 04:31:43;;;;;;;1999.90;999.90;;;;;;;11.23;100.00;-18208.16;5118439;28;20205;-34
2021/05/13 04:34:30;;;;;;;1999.90;999.90;;;;;;;11.21;100.00;-18207.63;5118446;28;20602;-36
2021/05/13 04:37:16;;;;;;;1999.90;999.90;;;;;;;11.28;100.00;-18209.50;5117961;28;20608;-32
2021/05/13 04:40:08;;;;;;;1999.90;999.90;;;;;;;11.22;100.00;-18207.75;5117892;28;20610;-34
2021/05/13 04:42:56;;;;;;;1999.90;999.90;;;;;;;11.11;100.00;-18204.94;5118043;28;20206;-34
2021/05/13 04:45:42;;;;;;;1999.90;999.90;;;;;;;11.23;100.00;-18208.16;5118035;28;20491;-34
2021/05/13 04:48:41;;;;;;;1999.90;999.90;;;;;;;10.86;100.00;-18198.41;5117963;28;20298;-33
2021/05/13 04:51:29;;;;;;;1999.90;999.90;;;;;;;10.79;100.00;-18196.41;5117826;28;20261;-33
2021/05/13 04:54:18;;;;;;;1999.90;999.90;;;;;;;10.75;100.00;-18032.75;5117814;28;20279;-32
2021/05/13 04:57:05;;;;;;;1999.90;999.90;;;;;;;10.92;100.00;-17125.47;5117822;28;20203;-34
2021/05/13 04:59:52;;;;;;;1999.90;999.90;;;;;;;11.25;100.00;-17736.88;5117784;28;20236;-33
2021/05/13 05:02:39;;;;;;;1999.90;999.90;;;;;;;11.40;100.00;-18212.69;5117407;28;20232;-32
2021/05/13 05:05:25;;;;;;;1999.90;999.90;;;;;;;11.50;100.00;-18215.09;5117467;28;20195;-35
2021/05/13 05:08:12;;;;;;;1999.90;999.90;;;;;;;11.46;100.00;-18214.03;5117635;28;20203;-35
2021/05/13 05:10:58;;;;;;;1999.90;999.90;;;;;;;11.20;100.00;-18207.34;5117668;28;20380;-36
2021/05/13 05:13:44;;;;;;;1999.90;999.90;;;;;;;11.13;100.00;-18205.47;5117226;28;20234;-35
2021/05/13 05:16:32;;;;;;;1999.90;999.90;;;;;;;11.11;100.00;-18204.94;5117571;28;20267;-35
2021/05/13 05:19:26;;;;;;;1999.90;999.90;;;;;;;11.28;100.00;-17699.97;5117582;28;20268;-34
2021/05/13 05:22:14;;;;;;;1999.90;999.90;;;;;;;11.44;100.00;-17558.16;5117447;28;20228;-32
2021/05/13 05:25:03;;;;;;;1999.90;999.90;;;;;;;11.46;100.00;-17913.16;5117042;28;20674;-35
2021/05/13 05:27:50;;;;;;;1999.90;999.90;;;;;;;11.52;100.00;-18215.63;5117187;28;20471;-38
2021/05/13 05:30:40;;;;;;;1999.90;999.90;;;;;;;11.40;100.00;-18212.69;5116876;28;20348;-32
2021/05/13 05:33:29;;;;;;;1999.90;999.90;;;;;;;11.99;100.00;-18228.19;5117408;28;20347;-36
2021/05/13 05:36:15;;;;;;;1999.90;999.90;;;;;;;12.02;100.00;-18229.00;5117490;28;20210;-34
2021/05/13 05:39:02;;;;;;;1999.90;999.90;;;;;;;11.81;100.00;-18223.25;5117397;28;20344;-35
2021/05/13 05:41:49;;;;;;;1999.90;999.90;;;;;;;11.90;100.00;-18225.78;5117105;28;20497;-36
2021/05/13 05:44:35;;;;;;;1999.90;999.90;;;;;;;12.06;100.00;-18230.06;5117215;28;20249;-33
2021/05/13 05:47:21;;;;;;;1999.90;999.90;;;;;;;11.94;100.00;-18226.88;5117630;28;20296;-35
2021/05/13 05:50:10;;;;;;;1999.90;999.90;;;;;;;12.42;100.00;-18239.53;5117377;28;20348;-34
2021/05/13 05:52:58;;;;;;;1999.90;999.90;;;;;;;12.58;100.00;-18243.56;5117607;28;20528;-34
2021/05/13 05:55:45;;;;;;;1999.90;999.90;;;;;;;12.35;100.00;-18237.53;5117424;28;20493;-33
2021/05/13 05:58:31;;;;;;;1999.90;999.90;;;;;;;12.95;100.00;-18253.44;5117210;28;20615;-33
2021/05/13 06:01:17;;;;;;;1999.90;999.90;;;;;;;13.40;100.00;-18265.31;5116443;28;20218;-32
2021/05/13 06:04:08;;;;;;;1999.90;999.90;;;;;;;15.02;100.00;-18307.81;5116933;28;20477;-35
2021/05/13 06:06:56;;;;;;;1999.90;999.90;;;;;;;16.46;100.00;-18345.50;5117140;28;20203;-34
2021/05/13 06:09:43;;;;;;;1999.90;999.90;;;;;;;16.32;100.00;-18341.78;5116986;28;20206;-32
2021/05/13 06:12:29;;;;;;;1999.90;999.90;;;;;;;16.57;100.00;-18348.28;5116462;28;20239;-32
2021/05/13 06:15:21;;;;;;;1999.90;999.90;;;;;;;15.93;100.00;-18331.66;5117060;28;20620;-34
2021/05/13 06:18:07;;;;;;;1999.90;999.90;;;;;;;16.13;100.00;-18336.97;5116625;28;20201;-34
2021/05/13 06:20:54;;;;;;;1999.90;999.90;;;;;;;17.99;100.00;-18385.66;5117150;28;20222;-35
2021/05/13 06:23:46;;;;;;;1999.90;999.90;;;;;;;19.08;100.00;-18414.19;5116641;28;20292;-33
2021/05/13 06:26:33;;;;;;;1999.90;999.90;;;;;;;19.71;100.00;-18430.66;5116952;28;20582;-35
2021/05/13 06:29:23;;;;;;;1999.90;999.90;;;;;;;17.50;100.00;-18372.75;5116996;28;20220;-34
2021/05/13 06:32:10;;;;;;;1999.90;999.90;;;;;;;17.51;100.00;-18373.16;5116899;28;20350;-32
2021/05/13 06:34:56;;;;;;;1999.90;999.90;;;;;;;19.69;100.00;-18429.97;5116995;28;20194;-34
2021/05/13 06:37:46;;;;;;;1999.90;999.90;;;;;;;20.17;93.80;-18442.72;5118323;28;20220;-36
2021/05/13 06:40:33;;;;;;;1999.90;999.90;;;;;;;19.78;87.85;-18432.38;5120647;28;20203;-33
2021/05/13 06:43:22;;;;;;;1999.90;999.90;;;;;;;19.07;100.00;-18413.94;5120549;28;20228;-34
2021/05/13 06:46:10;;;;;;;1999.90;999.90;;;;;;;19.53;95.70;-18425.88;5120480;28;20202;-35
2021/05/13 06:48:56;;;;;;;1999.90;999.90;;;;;;;18.38;100.00;-18395.75;5120523;28;20243;-35
2021/05/13 06:51:46;;;;;;;1999.90;999.90;;;;;;;16.37;100.00;-18343.25;5120253;28;20221;-34
2021/05/13 06:54:33;;;;;;;1999.90;999.90;;;;;;;19.04;99.27;-18413.13;5120370;28;20218;-38
2021/05/13 06:57:23;;;;;;;1999.90;999.90;;;;;;;18.50;100.00;-18398.94;5120513;28;20536;-36
2021/05/13 07:00:11;;;;;;;1999.90;999.90;;;;;;;18.55;100.00;-18400.25;5120220;28;20290;-32
2021/05/13 07:02:58;;;;;;;1999.90;999.90;;;;;;;16.71;100.00;-18352.03;5119865;28;20331;-35
2021/05/13 07:05:45;;;;;;;1999.90;999.90;;;;;;;18.32;100.00;-18394.16;5120145;28;20601;-35
2021/05/13 07:08:31;;;;;;;1999.90;999.90;;;;;;;19.43;100.00;-18423.22;5119785;28;20217;-35
2021/05/13 07:11:18;;;;;;;1999.90;999.90;;;;;;;21.33;87.44;-18472.94;5119865;28;20201;-33
2021/05/13 07:14:05;;;;;;;1999.90;999.90;;;;;;;18.13;100.00;-18389.22;5119792;28;20268;-36
2021/05/13 07:16:53;;;;;;;1999.90;999.90;;;;;;;17.39;100.00;-18369.84;5119610;28;20202;-37
2021/05/13 07:19:40;;;;;;;1999.90;999.90;;;;;;;18.62;100.00;-18402.13;5119471;28;20280;-34
2021/05/13 07:22:28;;;;;;;1999.90;999.90;;;;;;;18.43;100.00;-18397.19;5119179;28;20229;-38
2021/05/13 07:25:16;;;;;;;1999.90;999.90;;;;;;;19.96;96.03;-18437.16;5119735;28;20195;-34
2021/05/13 07:28:04;;;;;;;1999.90;999.90;;;;;;;20.12;91.41;-18441.38;5119324;28;20194;-35
2021/05/13 07:30:52;;;;;;;1999.90;999.90;;;;;;;18.65;100.00;-18402.91;5119699;28;20194;-37
2021/05/13 07:33:42;;;;;;;1999.90;999.90;;;;;;;17.95;100.00;-18384.59;5119018;28;20220;-35
2021/05/13 07:36:29;;;;;;;1999.90;999.90;;;;;;;18.21;100.00;-18391.34;5119440;28;20221;-35
2021/05/13 07:39:18;;;;;;;1999.90;999.90;;;;;;;19.63;100.00;-18428.38;5119395;28;20195;-33
2021/05/13 07:42:07;;;;;;;1999.90;999.90;;;;;;;19.51;99.02;-18425.47;5118743;28;20218;-38
2021/05/13 07:44:54;;;;;;;1999.90;999.90;;;;;;;19.08;100.00;-18414.06;5119010;28;20207;-35
2021/05/13 07:47:41;;;;;;;1999.90;999.90;;;;;;;19.12;95.39;-18415.13;5119064;28;20283;-35
2021/05/13 07:50:32;;;;;;;1999.90;999.90;;;;;;;19.05;91.43;-18413.41;5118853;28;20609;-36
2021/05/13 07:53:18;;;;;;;1999.90;999.90;;;;;;;20.07;91.13;-18440.06;5118815;28;20346;-38
2021/05/13 07:56:07;;;;;;;1999.90;999.90;;;;;;;20.49;82.07;-18451.06;5119077;28;20218;-34
2021/05/13 07:58:56;;;;;;;1999.90;999.90;;;;;;;19.05;91.13;-18413.41;5119061;28;20207;-37
2021/05/13 08:01:42;;;;;;;1999.90;999.90;;;;;;;20.99;82.48;-18464.19;5118657;28;20201;-37
2021/05/13 08:04:32;;;;;;;1999.90;999.90;;;;;;;23.38;72.39;-18526.22;5118128;28;20199;-34
2021/05/13 08:07:20;;;;;;;1999.90;999.90;;;;;;;23.22;67.84;-18522.25;5118280;28;20194;-36
2021/05/13 08:10:12;;;;;;;1999.90;999.90;;;;;;;23.92;61.58;-18540.38;5118429;28;20604;-38
2021/05/13 08:13:01;;;;;;;1999.90;999.90;;;;;;;24.02;62.99;-18543.13;5117833;28;20295;-35
2021/05/13 08:15:47;;;;;;;1999.90;999.90;;;;;;;20.20;75.12;-18443.50;5118836;28;20202;-37
2021/05/13 08:18:33;;;;;;;1999.90;999.90;;;;;;;19.05;85.69;-18413.41;5118914;28;20299;-36
2021/05/13 08:21:20;;;;;;;1999.90;999.90;;;;;;;19.82;81.57;-18433.56;5118268;28;20648;-36
2021/05/13 08:24:08;;;;;;;1999.90;999.90;;;;;;;19.23;82.41;-18418.03;5118817;28;20254;-34
2021/05/13 08:26:57;;;;;;;1999.90;999.90;;;;;;;20.38;72.51;-18448.16;5117671;28;20256;-36
2021/05/13 08:29:44;;;;;;;1999.90;999.90;;;;;;;20.94;71.41;-18462.84;5118257;28;20201;-35
2021/05/13 08:32:30;;;;;;;1999.90;999.90;;;;;;;22.94;64.65;-18515.00;5117747;28;20191;-33
2021/05/13 08:35:17;;;;;;;1999.90;999.90;;;;;;;22.09;64.38;-18492.66;5118078;28;20217;-38
2021/05/13 08:38:04;;;;;;;1999.90;999.90;;;;;;;21.82;65.92;-18485.75;5117232;28;20198;-35
2021/05/13 08:40:53;;;;;;;1999.90;999.90;;;;;;;21.91;64.19;-18488.00;5118208;28;20591;-36
2021/05/13 08:43:42;;;;;;;1999.90;999.90;;;;;;;21.67;65.39;-18481.91;5118282;28;20499;-37
2021/05/13 08:46:30;;;;;;;1999.90;999.90;;;;;;;21.62;66.03;-18480.47;5117719;28;20198;-32
2021/05/13 08:49:16;;;;;;;1999.90;999.90;;;;;;;21.36;70.73;-18473.59;5117384;28;20217;-33
2021/05/13 08:52:05;;;;;;;1999.90;999.90;;;;;;;22.84;61.23;-18512.34;5117648;28;20341;-39
2021/05/13 08:54:54;;;;;;;1999.90;999.90;;;;;;;21.57;69.28;-18479.16;5117406;28;20209;-36
2021/05/13 08:57:44;;;;;;;1999.90;999.90;;;;;;;21.45;65.08;-18475.97;5117574;28;20520;-36
2021/05/13 09:00:30;;;;;;;1999.90;999.90;;;;;;;22.13;73.91;-18493.72;5117321;28;20205;-34
2021/05/13 09:03:31;;;;;;;1999.90;999.90;;;;;;;21.93;75.57;-18488.66;5117711;28;20230;-36
2021/05/13 09:06:27;;;;;;;1999.90;999.90;;;;;;;22.13;72.08;-18493.84;5116756;28;20202;-36
2021/05/13 09:09:18;;;;;;;1999.90;999.90;;;;;;;20.86;77.35;-18460.72;5117390;28;20604;-37
2021/05/13 09:12:10;;;;;;;1999.90;999.90;;;;;;;22.28;74.53;-18497.66;5117079;28;20191;-34
2021/05/13 09:15:02;;;;;;;1999.90;999.90;;;;;;;20.92;75.40;-18462.31;5117247;28;20496;-38
2021/05/13 09:17:50;;;;;;;1999.90;999.90;;;;;;;19.31;86.98;-18420.03;5117600;28;20191;-37
2021/05/13 09:20:43;;;;;;;1999.90;999.90;;;;;;;18.90;91.35;-18409.56;5117381;28;20332;-34
2021/05/13 09:23:29;;;;;;;1999.90;999.90;;;;;;;18.51;100.00;-18399.31;5117306;28;20737;-37
2021/05/13 09:26:20;;;;;;;1999.90;999.90;;;;;;;18.57;97.34;-18400.78;5116776;28;20266;-36
2021/05/13 09:29:10;;;;;;;1999.90;999.90;;;;;;;19.19;93.24;-18416.97;5117396;28;20613;-36
2021/05/13 09:31:56;;;;;;;1999.90;999.90;;;;;;;19.37;93.57;-18421.63;5117576;28;20198;-38
2021/05/13 09:34:46;;;;;;;1999.90;999.90;;;;;;;19.39;98.56;-18422.16;5117403;28;20359;-38
2021/05/13 09:37:37;;;;;;;1999.90;999.90;;;;;;;18.12;98.20;-18389.09;5099980;28;20207;-33
2021/05/13 09:40:35;;;;;;;1999.90;999.90;;;;;;;18.20;100.00;-18391.22;5096766;28;20201;-36
2021/05/13 09:43:22;;;;;;;1999.90;999.90;;;;;;;18.54;99.10;-18400.00;5097045;28;20680;-33
2021/05/13 09:46:30;;;;;;;1999.90;999.90;;;;;;;19.08;93.25;-18414.19;5096963;28;20199;-36
2021/05/13 09:49:17;;;;;;;1999.90;999.90;;;;;;;18.64;93.75;-18402.66;5096772;28;20564;-37
2021/05/13 09:52:07;;;;;;;1999.90;999.90;;;;;;;19.18;88.17;-18416.72;5096462;28;20608;-37
2021/05/13 09:55:14;;;;;;;1999.90;999.90;;;;;;;19.26;87.33;-18418.84;5096719;28;20203;-44
2021/05/13 09:58:06;;;;;;;1999.90;999.90;;;;;;;19.15;87.94;-18416.06;5096653;28;20256;-34
2021/05/13 10:00:52;;;;;;;1999.90;999.90;;;;;;;18.45;92.67;-18397.72;5096144;28;20199;-33
2021/05/13 10:03:39;;;;;;;1999.90;999.90;;;;;;;18.53;98.57;-18399.84;5096475;28;20219;-36
2021/05/13 10:06:26;;;;;;;1999.90;999.90;;;;;;;18.91;93.43;-18409.69;5096658;28;20535;-33
2021/05/13 10:09:13;;;;;;;1999.90;999.90;;;;;;;18.46;96.47;-18397.88;5096526;28;20203;-36
2021/05/13 10:12:00;;;;;;;1999.90;999.90;;;;;;;17.95;100.00;-18384.59;5097012;28;20199;-35
2021/05/13 10:14:53;;;;;;;1999.90;999.90;;;;;;;18.68;95.88;-18403.72;5100045;28;20438;-37
2021/05/13 10:17:43;;;;;;;1999.90;999.90;;;;;;;18.95;96.67;-18410.75;5100278;28;20600;-37
2021/05/13 10:20:35;;;;;;;1999.90;999.90;;;;;;;19.20;93.64;-18417.25;5100497;28;20203;-37
2021/05/13 10:23:25;;;;;;;1999.90;999.90;;;;;;;18.95;90.96;-18410.75;5100347;28;20236;-38
2021/05/13 10:26:40;;;;;;;1999.90;999.90;;;;;;;19.37;79.42;-18421.63;5099860;28;20199;-38
2021/05/13 10:29:37;;;;;;;1999.90;999.90;;;;;;;19.52;77.70;-18425.59;5100446;28;20202;-38
2021/05/13 10:32:32;;;;;;;1999.90;999.90;;;;;;;19.31;81.98;-18420.16;5099925;28;20195;-36
2021/05/13 10:35:23;;;;;;;1999.90;999.90;;;;;;;19.41;70.94;-18422.81;5102683;28;20208;-35
2021/05/13 10:38:12;;;;;;;1999.90;999.90;;;;;;;18.73;77.30;-18405.03;5108105;28;20211;-33
2021/05/13 10:41:03;;;;;;;1999.90;999.90;;;;;;;19.39;73.25;-18422.28;5106583;28;20212;-39
2021/05/13 10:43:50;;;;;;;1999.90;999.90;;;;;;;19.88;74.36;-18435.16;5107421;28;20236;-33
2021/05/13 10:46:41;;;;;;;1999.90;999.90;;;;;;;20.60;73.76;-18453.84;5115669;28;20216;-38
2021/05/13 10:49:49;;;;;;;1999.90;999.90;;;;;;;21.79;70.73;-18484.84;5120049;28;20223;-36
2021/05/13 10:52:49;;;;;;;1999.90;999.90;;;;;;;21.78;69.04;-18484.56;5099215;28;20193;-35
2021/05/13 10:55:47;;;;;;;1999.90;999.90;;;;;;;21.84;69.84;-18486.28;5104415;28;20207;-36
2021/05/13 10:59:17;;;;;;;1999.90;999.90;;;;;;;21.82;70.42;-18485.63;5108535;28;20255;-33
2021/05/13 11:02:39;;;;;;;1999.90;999.90;;;;;;;21.48;69.45;-18476.91;5101551;28;20198;-36
2021/05/13 11:05:44;;;;;;;1999.90;999.90;;;;;;;21.98;68.26;-18489.88;5099984;28;20202;-35
2021/05/13 11:08:48;;;;;;;1999.90;999.90;;;;;;;22.84;63.90;-18512.22;5098639;28;20205;-37
2021/05/13 11:12:08;;;;;;;1999.90;999.90;;;;;;;21.80;64.72;-18485.22;5099137;28;20202;-37
2021/05/13 11:15:13;;;;;;;1999.90;999.90;;;;;;;20.79;66.29;-18458.88;5099113;28;20289;-34
2021/05/13 11:18:09;;;;;;;1999.90;999.90;;;;;;;21.42;66.48;-18475.31;5098871;28;20199;-36
2021/05/13 11:20:57;;;;;;;1999.90;999.90;;;;;;;22.15;62.34;-18494.38;5099147;28;20257;-37
2021/05/13 11:23:51;;;;;;;1999.90;999.90;;;;;;;22.58;55.68;-18505.47;5098520;28;20279;-40
2021/05/13 11:26:38;;;;;;;1999.90;999.90;;;;;;;21.57;65.54;-18479.28;5099146;28;20200;-37
2021/05/13 11:29:24;;;;;;;1999.90;999.90;;;;;;;22.90;53.39;-18513.81;5099576;28;20596;-38
2021/05/13 11:32:11;;;;;;;1999.90;999.90;;;;;;;23.11;55.54;-18519.34;5099055;28;20293;-35
2021/05/13 11:34:59;;;;;;;1999.90;999.90;;;;;;;24.01;49.88;-18542.88;5099177;28;20597;-35
2021/05/13 11:37:51;;;;;;;1999.90;999.90;;;;;;;21.16;55.47;-18468.41;5098838;28;20183;-34
2021/05/13 11:40:39;;;;;;;1999.90;999.90;;;;;;;21.80;55.07;-18485.09;5098818;28;20199;-35
2021/05/13 11:43:28;;;;;;;1999.90;999.90;;;;;;;22.16;57.67;-18494.50;5098361;28;20219;-35
2021/05/13 11:46:17;;;;;;;1999.90;999.90;;;;;;;22.26;55.74;-18497.13;5097816;28;20199;-34
2021/05/13 11:49:06;;;;;;;1999.90;999.90;;;;;;;21.98;59.99;-18489.88;5097366;28;20257;-33
2021/05/13 11:51:53;;;;;;;1999.90;999.90;;;;;;;23.04;49.16;-18517.50;5097941;28;20196;-34
2021/05/13 11:54:42;;;;;;;1999.90;999.90;;;;;;;22.75;49.30;-18509.84;5098382;28;20253;-35
2021/05/13 11:57:30;;;;;;;1999.90;999.90;;;;;;;21.43;52.87;-18475.56;5098407;28;20345;-37
2021/05/13 12:00:24;;;;;;;1999.90;999.90;;;;;;;22.79;53.64;-18511.03;5097894;28;20712;-32
2021/05/13 12:03:13;;;;;;;1999.90;999.90;;;;;;;23.33;49.60;-18525.03;5097594;28;20219;-36
2021/05/13 12:06:01;;;;;;;1999.90;999.90;;;;;;;23.93;51.75;-18540.63;5097976;28;20360;-35
2021/05/13 12:08:50;;;;;;;1999.90;999.90;;;;;;;21.86;56.73;-18486.69;5097748;28;20207;-37
2021/05/13 12:11:38;;;;;;;1999.90;999.90;;;;;;;21.85;54.30;-18486.41;5098019;28;20333;-33
2021/05/13 12:14:28;;;;;;;1999.90;999.90;;;;;;;22.11;54.55;-18493.19;5097175;28;20332;-36
2021/05/13 12:17:27;;;;;;;1999.90;999.90;;;;;;;19.72;63.18;-18430.78;5098311;28;20203;-32